Time;durP1;ratioP1;P1;durP2;ratioP2;P2;SDS_P1;SDS_P2;PMS_P1;PMS_P2;Temp;Humidity;BMP_temperature;BMP_pressure;BME280_temperature;BME280_humidity;BME280_pressure;Samples;Min_cycle;Max_cycle;Signal;HPM_P1;HPM_P2
2022/03/04 00:01:55;;;;;;;;;;;;;;;;;;5056829;28;19921;-74
2022/03/04 00:04:22;;;;;;;;;;;;;;;;;;5091310;28;20401;-74
2022/03/04 00:06:49;;;;;;;;;;;;;;;;;;5074165;28;19920;-74
2022/03/04 00:09:15;;;;;;;;;;;;;;;;;;5073695;28;20427;-74
2022/03/04 00:11:42;;;;;;;;;;;;;;;;;;5055444;28;19956;-75
2022/03/04 00:14:09;;;;;;;;;;;;;;;;;;5067114;28;19963;-74
2022/03/04 00:16:36;;;;;;;;;;;;;;;;;;5075439;28;19927;-74
2022/03/04 00:19:07;;;;;;;;;;;;;;;;;;5057190;28;19959;-73
2022/03/04 00:21:33;;;;;;;;;;;;;;;;;;5056873;28;19924;-73
2022/03/04 00:23:59;;;;;;;;;;;;;;;;;;5073212;28;19920;-75
2022/03/04 00:26:26;;;;;;;;;;;;;;;;;;5073637;28;19947;-73
2022/03/04 00:28:54;;;;;;;;;;;;;;;;;;5074691;28;20022;-73
2022/03/04 00:31:20;;;;;;;;;;;;;;;;;;5073387;28;19920;-73
2022/03/04 00:33:47;;;;;;;;;;;;;;;;;;5074149;28;20352;-73
2022/03/04 00:36:13;;;;;;;;;;;;;;;;;;5073178;28;20035;-73
2022/03/04 00:38:40;;;;;;;;;;;;;;;;;;5073773;28;19989;-72
2022/03/04 00:41:06;;;;;;;;;;;;;;;;;;5072933;28;19928;-73
2022/03/04 00:43:33;;;;;;;;;;;;;;;;;;5072019;28;19956;-74
2022/03/04 00:46:00;;;;;;;;;;;;;;;;;;5074328;28;19970;-73
2022/03/04 00:48:26;;;;;;;;;;;;;;;;;;5072987;28;19936;-73
2022/03/04 00:50:53;;;;;;;;;;;;;;;;;;5072873;28;19963;-73
2022/03/04 00:53:19;;;;;;;;;;;;;;;;;;5064520;28;20323;-73
2022/03/04 00:55:47;;;;;;;;;;;;;;;;;;5072278;28;19927;-73
2022/03/04 00:58:13;;;;;;;;;;;;;;;;;;5064648;28;19921;-73
2022/03/04 01:00:40;;;;;;;;;;;;;;;;;;5053837;28;19920;-73
2022/03/04 01:03:06;;;;;;;;;;;;;;;;;;5060949;28;20003;-74
2022/03/04 01:05:34;;;;;;;;;;;;;;;;;;5074161;28;19920;-74
2022/03/04 01:08:00;;;;;;;;;;;;;;;;;;5072961;28;19924;-73
2022/03/04 01:10:26;;;;;;;;;;;;;;;;;;5073050;28;19978;-73
2022/03/04 01:12:54;;;;;;;;;;;;;;;;;;5074044;28;20369;-73
2022/03/04 01:15:21;;;;;;;;;;;;;;;;;;5074402;28;20365;-73
2022/03/04 01:17:48;;;;;;;;;;;;;;;;;;5072606;28;19920;-73
2022/03/04 01:20:15;;;;;;;;;;;;;;;;;;5072061;28;19935;-74
2022/03/04 01:22:41;;;;;;;;;;;;;;;;;;5055018;28;20367;-73
2022/03/04 01:25:08;;;;;;;;;;;;;;;;;;5036671;28;19921;-72
2022/03/04 01:27:35;;;;;;;;;;;;;;;;;;5036446;28;19943;-73
2022/03/04 01:30:01;;;;;;;;;;;;;;;;;;5052901;28;20454;-73
2022/03/04 01:32:27;;;;;;;;;;;;;;;;;;5053479;28;20007;-73
2022/03/04 01:34:54;;;;;;;;;;;;;;;;;;5072185;28;19947;-74
2022/03/04 01:37:21;;;;;;;;;;;;;;;;;;5064438;28;19952;-74
2022/03/04 01:39:47;;;;;;;;;;;;;;;;;;5052634;28;19921;-73
2022/03/04 01:42:14;;;;;;;;;;;;;;;;;;5061368;28;20316;-73
2022/03/04 01:44:40;;;;;;;;;;;;;;;;;;5072624;28;20434;-73
2022/03/04 01:47:07;;;;;;;;;;;;;;;;;;5072482;28;20003;-73
2022/03/04 01:49:34;;;;;;;;;;;;;;;;;;5088925;28;19946;-73
2022/03/04 01:52:00;;;;;;;;;;;;;;;;;;5067037;28;19925;-73
2022/03/04 01:54:27;;;;;;;;;;;;;;;;;;5052481;28;20022;-74
2022/03/04 01:56:54;;;;;;;;;;;;;;;;;;5052962;28;19944;-75
2022/03/04 01:59:20;;;;;;;;;;;;;;;;;;5052394;28;20023;-74
2022/03/04 02:01:47;;;;;;;;;;;;;;;;;;5056470;28;20023;-73
2022/03/04 02:04:14;;;;;;;;;;;;;;;;;;5072237;28;19927;-75
2022/03/04 02:06:40;;;;;;;;;;;;;;;;;;5067174;28;19928;-74
2022/03/04 02:09:07;;;;;;;;;;;;;;;;;;5071233;28;19925;-73
2022/03/04 02:11:34;;;;;;;;;;;;;;;;;;5056954;28;19928;-74
2022/03/04 02:14:00;;;;;;;;;;;;;;;;;;5072923;28;20396;-73
2022/03/04 02:16:27;;;;;;;;;;;;;;;;;;5090134;28;19967;-73
2022/03/04 02:18:54;;;;;;;;;;;;;;;;;;5071154;28;19920;-74
2022/03/04 02:21:22;;;;;;;;;;;;;;;;;;5052306;28;19971;-73
2022/03/04 02:23:49;;;;;;;;;;;;;;;;;;5052987;28;20031;-74
2022/03/04 02:26:16;;;;;;;;;;;;;;;;;;5058969;28;19924;-72
2022/03/04 02:28:44;;;;;;;;;;;;;;;;;;5073900;28;19998;-74
2022/03/04 02:31:12;;;;;;;;;;;;;;;;;;5089418;28;20372;-73
2022/03/04 02:33:39;;;;;;;;;;;;;;;;;;5071871;28;19920;-74
2022/03/04 02:36:09;;;;;;;;;;;;;;;;;;5071904;28;20387;-74
2022/03/04 02:38:35;;;;;;;;;;;;;;;;;;5093550;28;19920;-74
2022/03/04 02:41:02;;;;;;;;;;;;;;;;;;5077317;28;19960;-74
2022/03/04 02:43:30;;;;;;;;;;;;;;;;;;5059436;28;19920;-73
2022/03/04 02:46:03;;;;;;;;;;;;;;;;;;5072524;28;20472;-72
2022/03/04 02:48:31;;;;;;;;;;;;;;;;;;5055748;28;20404;-73
2022/03/04 02:51:06;;;;;;;;;;;;;;;;;;5055052;28;19927;-73
2022/03/04 02:53:40;;;;;;;;;;;;;;;;;;5057605;28;19931;-73
2022/03/04 02:56:10;;;;;;;;;;;;;;;;;;5039359;28;19927;-73
2022/03/04 02:58:40;;;;;;;;;;;;;;;;;;5055442;28;19971;-72
2022/03/04 03:01:08;;;;;;;;;;;;;;;;;;5055396;28;19927;-72
2022/03/04 03:03:35;;;;;;;;;;;;;;;;;;5061084;28;19921;-72
2022/03/04 03:06:02;;;;;;;;;;;;;;;;;;5074591;28;19920;-72
2022/03/04 03:08:30;;;;;;;;;;;;;;;;;;5058877;28;19920;-72
2022/03/04 03:11:02;;;;;;;;;;;;;;;;;;5059466;28;19931;-74
2022/03/04 03:13:33;;;;;;;;;;;;;;;;;;5076217;28;20003;-75
2022/03/04 03:16:02;;;;;;;;;;;;;;;;;;5072354;28;19920;-73
2022/03/04 03:18:54;;;;;;;;;;;;;;;;;;5055006;28;19932;-72
2022/03/04 03:21:22;;;;;;;;;;;;;;;;;;5038472;28;19959;-73
2022/03/04 03:23:50;;;;;;;;;;;;;;;;;;5038368;28;20292;-72
2022/03/04 03:26:21;;;;;;;;;;;;;;;;;;5061124;28;19973;-72
2022/03/04 03:28:50;;;;;;;;;;;;;;;;;;5058806;28;20395;-72
2022/03/04 03:31:19;;;;;;;;;;;;;;;;;;5076324;28;19927;-72
2022/03/04 03:33:48;;;;;;;;;;;;;;;;;;5075140;28;19927;-73
2022/03/04 03:36:16;;;;;;;;;;;;;;;;;;5054960;28;20019;-72
2022/03/04 03:38:44;;;;;;;;;;;;;;;;;;5057862;28;19958;-73
2022/03/04 03:41:14;;;;;;;;;;;;;;;;;;5074276;28;19920;-72
2022/03/04 03:43:42;;;;;;;;;;;;;;;;;;5057172;28;20004;-71
2022/03/04 03:46:11;;;;;;;;;;;;;;;;;;5055310;28;19921;-72
2022/03/04 03:48:40;;;;;;;;;;;;;;;;;;5052877;28;20356;-73
2022/03/04 03:51:09;;;;;;;;;;;;;;;;;;5054176;28;19920;-73
2022/03/04 03:53:40;;;;;;;;;;;;;;;;;;5052035;28;19966;-73
2022/03/04 03:56:09;;;;;;;;;;;;;;;;;;5074186;28;19920;-74
2022/03/04 03:58:38;;;;;;;;;;;;;;;;;;5075728;28;20396;-73
2022/03/04 04:01:11;;;;;;;;;;;;;;;;;;5075172;28;19920;-75
2022/03/04 04:03:42;;;;;;;;;;;;;;;;;;5069161;28;19973;-73
2022/03/04 04:06:11;;;;;;;;;;;;;;;;;;5073778;28;19924;-72
2022/03/04 04:08:43;;;;;;;;;;;;;;;;;;5073615;28;19927;-72
2022/03/04 04:11:13;;;;;;;;;;;;;;;;;;5073512;28;19927;-72
2022/03/04 04:13:44;;;;;;;;;;;;;;;;;;5073768;28;19931;-73
2022/03/04 04:16:15;;;;;;;;;;;;;;;;;;5073717;28;19920;-73
2022/03/04 04:18:45;;;;;;;;;;;;;;;;;;5056898;28;19928;-72
2022/03/04 04:21:16;;;;;;;;;;;;;;;;;;5075228;28;19920;-71
2022/03/04 04:23:45;;;;;;;;;;;;;;;;;;5059152;28;19920;-72
2022/03/04 04:26:13;;;;;;;;;;;;;;;;;;5054156;28;19932;-72
2022/03/04 04:28:42;;;;;;;;;;;;;;;;;;5037209;28;20000;-71
2022/03/04 04:31:12;;;;;;;;;;;;;;;;;;5037139;28;19991;-71
2022/03/04 04:34:03;;;;;;;;;;;;;;;;;;5063525;28;19928;-72
2022/03/04 04:36:34;;;;;;;;;;;;;;;;;;5072196;28;19951;-71
2022/03/04 04:39:03;;;;;;;;;;;;;;;;;;5077012;28;19920;-72
2022/03/04 04:41:31;;;;;;;;;;;;;;;;;;5095044;28;20269;-72
2022/03/04 04:44:00;;;;;;;;;;;;;;;;;;5072904;28;20296;-72
2022/03/04 04:46:28;;;;;;;;;;;;;;;;;;5056931;28;19920;-72
2022/03/04 04:48:56;;;;;;;;;;;;;;;;;;5056148;28;20343;-72
2022/03/04 04:51:28;;;;;;;;;;;;;;;;;;5055947;28;19970;-72
2022/03/04 04:53:56;;;;;;;;;;;;;;;;;;5072530;28;20007;-71
2022/03/04 04:56:24;;;;;;;;;;;;;;;;;;5074039;28;19921;-72
2022/03/04 04:58:52;;;;;;;;;;;;;;;;;;5074334;28;19927;-71
2022/03/04 05:01:22;;;;;;;;;;;;;;;;;;5073038;28;20019;-71
2022/03/04 05:03:51;;;;;;;;;;;;;;;;;;5072487;28;19935;-71
2022/03/04 05:06:18;;;;;;;;;;;;;;;;;;5073819;28;19921;-71
2022/03/04 05:08:48;;;;;;;;;;;;;;;;;;5059978;28;19920;-70
2022/03/04 05:11:17;;;;;;;;;;;;;;;;;;5074767;28;20343;-71
2022/03/04 05:13:47;;;;;;;;;;;;;;;;;;5073150;28;19920;-72
2022/03/04 05:16:16;;;;;;;;;;;;;;;;;;5056429;28;19920;-72
2022/03/04 05:18:44;;;;;;;;;;;;;;;;;;5073292;28;20339;-72
2022/03/04 05:21:12;;;;;;;;;;;;;;;;;;5070687;28;19926;-71
2022/03/04 05:23:59;;;;;;;;;;;;;;;;;;5072854;28;19921;-71
2022/03/04 05:26:27;;;;;;;;;;;;;;;;;;5074393;28;19920;-71
2022/03/04 05:28:57;;;;;;;;;;;;;;;;;;5073018;28;19920;-71
2022/03/04 05:31:28;;;;;;;;;;;;;;;;;;5062521;28;19921;-71
2022/03/04 05:33:54;;;;;;;;;;;;;;;;;;5044758;28;20027;-71
2022/03/04 05:36:21;;;;;;;;;;;;;;;;;;5072639;28;19924;-74
2022/03/04 05:38:49;;;;;;;;;;;;;;;;;;5074309;28;19927;-71
2022/03/04 05:41:15;;;;;;;;;;;;;;;;;;5072851;28;19928;-71
2022/03/04 05:43:42;;;;;;;;;;;;;;;;;;5057198;28;19925;-71
2022/03/04 05:46:08;;;;;;;;;;;;;;;;;;5055070;28;19959;-72
2022/03/04 05:48:35;;;;;;;;;;;;;;;;;;5053403;28;19941;-71
2022/03/04 05:51:03;;;;;;;;;;;;;;;;;;5052403;28;19925;-71
2022/03/04 05:53:30;;;;;;;;;;;;;;;;;;5054234;28;19943;-71
2022/03/04 05:55:56;;;;;;;;;;;;;;;;;;5054049;28;19956;-71
2022/03/04 05:58:23;;;;;;;;;;;;;;;;;;5043807;28;19924;-72
2022/03/04 06:00:50;;;;;;;;;;;;;;;;;;5055158;28;19959;-72
2022/03/04 06:03:17;;;;;;;;;;;;;;;;;;5056849;28;19921;-73
2022/03/04 06:05:44;;;;;;;;;;;;;;;;;;5070156;28;20381;-72
2022/03/04 06:08:10;;;;;;;;;;;;;;;;;;5072930;28;20045;-71
2022/03/04 06:10:37;;;;;;;;;;;;;;;;;;5055998;28;19970;-72
2022/03/04 06:13:04;;;;;;;;;;;;;;;;;;5075174;28;19954;-72
2022/03/04 06:15:30;;;;;;;;;;;;;;;;;;5093366;28;20018;-71
2022/03/04 06:17:57;;;;;;;;;;;;;;;;;;5077712;28;20004;-71
2022/03/04 06:20:23;;;;;;;;;;;;;;;;;;5077150;28;20369;-72
2022/03/04 06:22:50;;;;;;;;;;;;;;;;;;5065576;28;19967;-72
2022/03/04 06:25:16;;;;;;;;;;;;;;;;;;5056024;28;19944;-72
2022/03/04 06:27:43;;;;;;;;;;;;;;;;;;5057591;28;19925;-71
2022/03/04 06:30:09;;;;;;;;;;;;;;;;;;5056437;28;20019;-71
2022/03/04 06:32:36;;;;;;;;;;;;;;;;;;5065734;28;19920;-71
2022/03/04 06:35:02;;;;;;;;;;;;;;;;;;5075083;28;20369;-72
2022/03/04 06:37:29;;;;;;;;;;;;;;;;;;5077333;28;19967;-71
2022/03/04 06:39:55;;;;;;;;;;;;;;;;;;5075963;28;20053;-71
2022/03/04 06:42:21;;;;;;;;;;;;;;;;;;5077357;28;19924;-72
2022/03/04 06:44:48;;;;;;;;;;;;;;;;;;5093075;28;19974;-71
2022/03/04 06:47:14;;;;;;;;;;;;;;;;;;5076919;28;19952;-71
2022/03/04 06:49:41;;;;;;;;;;;;;;;;;;5075068;28;19924;-72
2022/03/04 06:52:07;;;;;;;;;;;;;;;;;;5072026;28;19921;-71
2022/03/04 06:54:36;;;;;;;;;;;;;;;;;;5062078;28;19924;-71
2022/03/04 06:57:02;;;;;;;;;;;;;;;;;;5075632;28;19924;-71
2022/03/04 06:59:29;;;;;;;;;;;;;;;;;;5062301;28;19920;-70
2022/03/04 07:01:55;;;;;;;;;;;;;;;;;;5055216;28;20349;-71
2022/03/04 07:04:22;;;;;;;;;;;;;;;;;;5067502;28;19982;-71
2022/03/04 07:06:49;;;;;;;;;;;;;;;;;;5076911;28;20426;-71
2022/03/04 07:09:16;;;;;;;;;;;;;;;;;;5076190;28;19920;-71
2022/03/04 07:11:43;;;;;;;;;;;;;;;;;;5074469;28;20373;-72
2022/03/04 07:14:09;;;;;;;;;;;;;;;;;;5076677;28;19962;-72
2022/03/04 07:16:36;;;;;;;;;;;;;;;;;;5075340;28;19977;-72
2022/03/04 07:19:03;;;;;;;;;;;;;;;;;;5077180;28;19920;-73
2022/03/04 07:21:29;;;;;;;;;;;;;;;;;;5066177;28;19921;-72
2022/03/04 07:23:57;;;;;;;;;;;;;;;;;;5063161;28;19921;-73
2022/03/04 07:26:24;;;;;;;;;;;;;;;;;;5076827;28;20015;-72
2022/03/04 07:28:50;;;;;;;;;;;;;;;;;;5075235;28;19974;-73
2022/03/04 07:31:17;;;;;;;;;;;;;;;;;;5076485;28;20023;-72
2022/03/04 07:33:44;;;;;;;;;;;;;;;;;;5076427;28;19924;-72
2022/03/04 07:36:10;;;;;;;;;;;;;;;;;;5075649;28;19943;-73
2022/03/04 07:38:37;;;;;;;;;;;;;;;;;;5075681;28;19947;-73
2022/03/04 07:41:04;;;;;;;;;;;;;;;;;;5075196;28;20316;-73
2022/03/04 07:43:30;;;;;;;;;;;;;;;;;;5059902;28;19935;-73
2022/03/04 07:45:56;;;;;;;;;;;;;;;;;;5057439;28;19994;-73
2022/03/04 07:48:23;;;;;;;;;;;;;;;;;;5058004;28;19924;-73
2022/03/04 07:50:49;;;;;;;;;;;;;;;;;;5058152;28;20377;-72
2022/03/04 07:53:16;;;;;;;;;;;;;;;;;;5064027;28;19920;-73
2022/03/04 07:55:45;;;;;;;;;;;;;;;;;;5075050;28;19928;-72
2022/03/04 07:58:11;;;;;;;;;;;;;;;;;;5075739;28;19921;-72
2022/03/04 08:00:38;;;;;;;;;;;;;;;;;;5075282;28;20281;-75
2022/03/04 08:03:10;;;;;;;;;;;;;;;;;;5075007;28;20055;-73
2022/03/04 08:05:37;;;;;;;;;;;;;;;;;;5075764;28;20334;-72
2022/03/04 08:08:03;;;;;;;;;;;;;;;;;;5076606;28;20015;-73
2022/03/04 08:10:30;;;;;;;;;;;;;;;;;;5076573;28;20347;-73
2022/03/04 08:12:56;;;;;;;;;;;;;;;;;;5078435;28;20312;-74
2022/03/04 08:15:23;;;;;;;;;;;;;;;;;;5060821;28;19921;-72
2022/03/04 08:17:50;;;;;;;;;;;;;;;;;;5076978;28;19920;-73
2022/03/04 08:20:21;;;;;;;;;;;;;;;;;;5060080;28;19943;-72
2022/03/04 08:22:50;;;;;;;;;;;;;;;;;;5066828;28;20385;-73
2022/03/04 08:25:16;;;;;;;;;;;;;;;;;;5065407;28;20446;-74
2022/03/04 08:27:46;;;;;;;;;;;;;;;;;;5073935;28;19920;-74
2022/03/04 08:30:12;;;;;;;;;;;;;;;;;;5074137;28;20297;-74
2022/03/04 08:32:39;;;;;;;;;;;;;;;;;;5073021;28;19925;-73
2022/03/04 08:35:06;;;;;;;;;;;;;;;;;;5072939;28;19920;-74
2022/03/04 08:37:33;;;;;;;;;;;;;;;;;;5073694;28;19920;-74
2022/03/04 08:39:59;;;;;;;;;;;;;;;;;;5061582;28;19920;-74
2022/03/04 08:42:27;;;;;;;;;;;;;;;;;;5055413;28;20381;-73
2022/03/04 08:44:55;;;;;;;;;;;;;;;;;;5053563;28;20015;-74
2022/03/04 08:47:22;;;;;;;;;;;;;;;;;;5053733;28;19947;-74
2022/03/04 08:49:50;;;;;;;;;;;;;;;;;;5052964;28;19928;-74
2022/03/04 08:52:17;;;;;;;;;;;;;;;;;;5059252;28;19920;-74
2022/03/04 08:54:44;;;;;;;;;;;;;;;;;;5073807;28;19920;-74
2022/03/04 08:57:10;;;;;;;;;;;;;;;;;;5065652;28;19975;-73
2022/03/04 08:59:38;;;;;;;;;;;;;;;;;;5053012;28;19931;-73
2022/03/04 09:02:05;;;;;;;;;;;;;;;;;;5053835;28;19925;-74
2022/03/04 09:04:33;;;;;;;3.70;1.05;;;;;;;;;;5066734;28;20397;-74
2022/03/04 09:07:00;;;;;;;0.80;0.80;;;;;;;;;;5072692;28;20365;-74
2022/03/04 09:09:28;;;;;;;1.07;0.80;;;;;;;;;;5056025;28;20446;-73
2022/03/04 09:11:56;;;;;;;2.40;2.30;;;;;;;;;;5073324;28;20502;-73
2022/03/04 09:14:23;;;;;;;1.27;1.17;;;;;;;;;;5072527;28;20424;-75
2022/03/04 09:16:50;;;;;;;0.70;0.57;;;;;;;;;;5072935;28;20418;-75
2022/03/04 09:19:17;;;;;;;0.80;0.70;;;;;;;;;;5073936;28;20818;-75
2022/03/04 09:21:45;;;;;;;;;;;;;;;;;;5071105;28;20283;-76
2022/03/04 09:24:12;;;;;;;;;;;;;;;;;;5055231;28;19921;-76
2022/03/04 09:26:38;;;;;;;;;;;;;;;;;;5073041;28;19921;-75
2022/03/04 09:29:06;;;;;;;;;;;;;;;;;;5074430;28;19978;-76
2022/03/04 09:31:32;;;;;;;;;;;;;;;;;;5073497;28;19920;-77
2022/03/04 09:33:59;;;;;;;;;;;;;;;;;;5072215;28;19920;-76
2022/03/04 09:36:25;;;;;;;;;;;;;;;;;;5073064;28;19920;-76
2022/03/04 09:38:52;;;;;;;;;;;;;;;;;;5072709;28;19968;-76
2022/03/04 09:41:19;;;;;;;;;;;;;;;;;;5071768;28;20356;-76
2022/03/04 09:43:50;;;;;;;;;;;;;;;;;;5053866;28;19925;-76
2022/03/04 09:46:16;;;;;;;;;;;;;;;;;;5037358;28;19952;-75
2022/03/04 09:48:43;;;;;;;;;;;;;;;;;;5065622;28;19924;-76
2022/03/04 09:51:11;;;;;;;1.00;0.90;;;;;;;;;;5055534;28;20214;-76
2022/03/04 09:53:37;;;;;;;;;;;;;;;;;;5072897;28;20381;-76
2022/03/04 09:56:05;;;;;;;;;;;;;;;;;;5075253;28;19924;-76
2022/03/04 09:58:34;;;;;;;5.07;1.87;;;;;;;;;;5076359;28;20404;-76
2022/03/04 10:01:08;;;;;;;3.10;1.90;;;;;;;;;;5075184;28;20407;-76
2022/03/04 10:03:43;;;;;;;7.60;2.38;;;;;;;;;;5074286;28;20461;-77
2022/03/04 10:06:12;;;;;;;1.57;1.17;;;;;;;;;;5075447;28;20211;-76
2022/03/04 10:08:39;;;;;;;4.40;2.63;;;;;;;;;;5059458;28;20498;-75
2022/03/04 10:11:05;;;;;;;;;;;;;;;;;;5075667;28;20301;-76
2022/03/04 10:13:32;;;;;;;;;;;;;;;;;;5075772;28;19924;-76
2022/03/04 10:15:59;;;;;;;;;;;;;;;;;;5077145;28;19924;-77
2022/03/04 10:18:25;;;;;;;;;;;;;;;;;;5075647;28;19983;-77
2022/03/04 10:20:54;;;;;;;;;;;;;;;;;;5076511;28;20297;-76
2022/03/04 10:23:20;;;;;;;;;;;;;;;;;;5061801;28;19921;-75
2022/03/04 10:25:48;;;;;;;;;;;;;;;;;;5069450;28;20044;-77
2022/03/04 10:28:15;;;;;;;;;;;;;;;;;;5076959;28;20292;-75
2022/03/04 10:30:42;;;;;;;;;;;;;;;;;;5076229;28;19920;-74
2022/03/04 10:33:08;;;;;;;;;;;;;;;;;;5076754;28;19978;-76
2022/03/04 10:35:36;;;;;;;;;;;;;;;;;;5076424;28;19925;-76
2022/03/04 10:38:04;;;;;;;;;;;;;;;;;;5075620;28;19920;-76
2022/03/04 10:40:31;;;;;;;;;;;;;;;;;;5075266;28;19966;-76
2022/03/04 10:42:59;;;;;;;;;;;;;;;;;;5075993;28;19971;-77
2022/03/04 10:45:26;;;;;;;;;;;;;;;;;;5076488;28;19920;-76
2022/03/04 10:47:54;;;;;;;;;;;;;;;;;;5075360;28;19924;-78
2022/03/04 10:50:20;;;;;;;;;;;;;;;;;;5075086;28;19920;-76
2022/03/04 10:52:48;;;;;;;;;;;;;;;;;;5068208;28;20304;-77
2022/03/04 10:55:15;;;;;;;;;;;;;;;;;;5064212;28;19924;-78
2022/03/04 10:57:46;;;;;;;;;;;;;;;;;;5075165;28;19924;-78
2022/03/04 11:00:13;;;;;;;;;;;;;;;;;;5058863;28;19920;-79
2022/03/04 11:02:40;;;;;;;;;;;;;;;;;;5065537;28;19924;-75
2022/03/04 11:05:08;;;;;;;;;;;;;;;;;;5073904;28;19920;-77
2022/03/04 11:07:35;;;;;;;;;;;;;;;;;;5074837;28;20010;-77
2022/03/04 11:10:03;;;;;;;;;;;;;;;;;;5074335;28;19920;-77
2022/03/04 11:12:29;;;;;;;;;;;;;;;;;;5075211;28;19974;-76
2022/03/04 11:14:56;;;;;;;;;;;;;;;;;;5075598;28;19978;-77
2022/03/04 11:17:22;;;;;;;;;;;;;;;;;;5058886;28;20024;-78
2022/03/04 11:19:49;;;;;;;;;;;;;;;;;;5074807;28;20019;-75
2022/03/04 11:22:15;;;;;;;;;;;;;;;;;;5087550;28;19948;-78
2022/03/04 11:24:42;;;;;;;;;;;;;;;;;;5058977;28;19976;-76
2022/03/04 11:27:09;;;;;;;;;;;;;;;;;;5075012;28;19934;-75
2022/03/04 11:29:36;;;;;;;;;;;;;;;;;;5068067;28;19925;-77
2022/03/04 11:32:03;;;;;;;;;;;;;;;;;;5066688;28;19927;-76
2022/03/04 11:34:29;;;;;;;;;;;;;;;;;;5066394;28;19952;-78
2022/03/04 11:36:57;;;;;;;;;;;;;;;;;;5067263;28;19920;-77
2022/03/04 11:39:24;;;;;;;;;;;;;;;;;;5067476;28;20325;-78
2022/03/04 11:41:53;;;;;;;;;;;;;;;;;;5068503;28;20010;-76
2022/03/04 11:44:20;;;;;;;;;;;;;;;;;;5062723;28;19920;-77
2022/03/04 11:46:50;;;;;;;;;;;;;;;;;;5059564;28;19920;-76
2022/03/04 11:49:17;;;;;;;;;;;;;;;;;;5076645;28;19920;-76
2022/03/04 11:51:45;;;;;;;;;;;;;;;;;;5075256;28;20396;-75
2022/03/04 11:54:14;;;;;;;;;;;;;;;;;;5040323;28;19944;-76
2022/03/04 11:56:41;;;;;;;;;;;;;;;;;;5058822;28;19979;-77
2022/03/04 11:59:14;;;;;;;;;;;;;;;;;;5039878;28;19974;-77
2022/03/04 12:01:45;;;;;;;;;;;;;;;;;;5040916;28;19920;-76
2022/03/04 12:04:13;;;;;;;;;;;;;;;;;;5067689;28;20407;-77
2022/03/04 12:06:41;;;;;;;;;;;;;;;;;;5077315;28;20011;-77
2022/03/04 12:09:07;;;;;;;;;;;;;;;;;;5075443;28;20389;-75
2022/03/04 12:11:34;;;;;;;;;;;;;;;;;;5075492;28;19970;-76
2022/03/04 12:14:01;;;;;;;;;;;;;;;;;;5076673;28;19986;-76
2022/03/04 12:16:29;;;;;;;;;;;;;;;;;;5076355;28;20015;-76
2022/03/04 12:18:59;;;;;;;;;;;;;;;;;;5077632;28;19925;-76
2022/03/04 12:21:26;;;;;;;;;;;;;;;;;;5075207;28;19928;-77
2022/03/04 12:23:53;;;;;;;;;;;;;;;;;;5073532;28;19927;-77
2022/03/04 12:26:37;;;;;;;;;;;;;;;;;;5053972;28;20027;-77
2022/03/04 12:29:04;;;;;;;;;;;;;;;;;;5055295;28;20023;-78
2022/03/04 12:31:30;;;;;;;;;;;;;;;;;;5054158;28;19956;-77
2022/03/04 12:33:57;;;;;;;;;;;;;;;;;;5072289;28;19927;-77
2022/03/04 12:36:24;;;;;;;;;;;;;;;;;;5073222;28;19928;-77
2022/03/04 12:38:51;;;;;;;;;;;;;;;;;;5073499;28;19921;-78
2022/03/04 12:41:18;;;;;;;;;;;;;;;;;;5072623;28;19920;-77
2022/03/04 12:43:45;;;;;;;;;;;;;;;;;;5072723;28;19968;-78
2022/03/04 12:46:11;;;;;;;;;;;;;;;;;;5074194;28;19927;-77
2022/03/04 12:48:38;;;;;;;;;;;;;;;;;;5072928;28;19942;-77
2022/03/04 12:51:04;;;;;;;;;;;;;;;;;;5072840;28;19920;-78
2022/03/04 12:53:31;;;;;;;;;;;;;;;;;;5055998;28;19926;-76
2022/03/04 12:55:58;;;;;;;;;;;;;;;;;;5056225;28;19978;-77
2022/03/04 12:58:24;;;;;;;;;;;;;;;;;;5074531;28;20019;-76
2022/03/04 13:00:51;;;;;;;;;;;;;;;;;;5073746;28;19920;-75
2022/03/04 13:03:18;;;;;;;;;;;;;;;;;;5074599;28;20295;-75
2022/03/04 13:05:45;;;;;;;;;;;;;;;;;;5072855;28;19924;-76
2022/03/04 13:08:11;;;;;;;;;;;;;;;;;;5072598;28;20342;-77
2022/03/04 13:10:38;;;;;;;;;;;;;;;;;;5071260;28;20368;-77
2022/03/04 13:13:06;;;;;;;;;;;;;;;;;;5089268;28;19928;-78
2022/03/04 13:15:32;;;;;;;;;;;;;;;;;;5053180;28;19971;-78
2022/03/04 13:17:59;;;;;;;;;;;;;;;;;;5056688;28;19924;-78
2022/03/04 13:20:26;;;;;;;;;;;;;;;;;;5044062;28;20090;-78
2022/03/04 13:22:52;;;;;;;;;;;;;;;;;;5036059;28;19924;-78
2022/03/04 13:25:19;;;;;;;;;;;;;;;;;;5061989;28;20028;-80
2022/03/04 13:27:48;;;;;;;;;;;;;;;;;;5055747;28;20298;-78
2022/03/04 13:30:15;;;;;;;;;;;;;;;;;;5054889;28;19920;-80
2022/03/04 13:32:42;;;;;;;;;;;;;;;;;;5070486;28;19983;-79
2022/03/04 13:35:10;;;;;;;;;;;;;;;;;;5056202;28;19920;-79
2022/03/04 13:37:36;;;;;;;;;;;;;;;;;;5069932;28;19931;-81
2022/03/04 13:40:03;;;;;;;;;;;;;;;;;;5062506;28;19967;-82
2022/03/04 13:42:29;;;;;;;;;;;;;;;;;;5053861;28;19971;-79
2022/03/04 13:44:56;;;;;;;;;;;;;;;;;;5068136;28;19920;-81
2022/03/04 13:47:23;;;;;;;;;;;;;;;;;;5072457;28;20343;-80
2022/03/04 13:49:49;;;;;;;;;;;;;;;;;;5067181;28;19990;-81
2022/03/04 13:52:16;;;;;;;;;;;;;;;;;;5073347;28;19925;-79
2022/03/04 13:54:43;;;;;;;;;;;;;;;;;;5073254;28;19924;-80
2022/03/04 13:57:10;;;;;;;;;;;;;;;;;;5072114;28;19921;-80
2022/03/04 13:59:36;;;;;;;;;;;;;;;;;;5074517;28;19978;-81
2022/03/04 14:02:03;;;;;;;;;;;;;;;;;;5072192;28;19963;-80
2022/03/04 14:04:30;;;;;;;;;;;;;;;;;;5060907;28;19924;-81
2022/03/04 14:06:56;;;;;;;;;;;;;;;;;;5037330;28;19924;-80
2022/03/04 14:09:23;;;;;;;;;;;;;;;;;;5036565;28;19921;-81
2022/03/04 14:11:52;;;;;;;;;;;;;;;;;;5054125;28;19925;-80
2022/03/04 14:14:18;;;;;;;;;;;;;;;;;;5059149;28;19989;-80
2022/03/04 14:16:45;;;;;;;;;;;;;;;;;;5074115;28;19920;-80
2022/03/04 14:19:12;;;;;;;;;;;;;;;;;;5072847;28;20389;-79
2022/03/04 14:21:38;;;;;;;;;;;;;;;;;;5072596;28;20002;-81
2022/03/04 14:24:05;;;;;;;;;;;;;;;;;;5072021;28;19927;-81
2022/03/04 14:26:32;;;;;;;;;;;;;;;;;;5051487;28;19926;-81
2022/03/04 14:29:11;;;;;;;;;;;;;;;;;;5061662;28;20372;-80
2022/03/04 14:31:38;;;;;;;;;;;;;;;;;;5089029;28;20369;-81
2022/03/04 14:34:06;;;;;;;;;;;;;;;;;;5076005;28;19920;-82
2022/03/04 14:36:34;;;;;;;0.70;0.70;;;;;;;;;;5075652;28;20236;-81
2022/03/04 14:39:21;;;;;;;1.15;1.00;;;;;;;;;;5076050;28;20403;-81
2022/03/04 14:41:49;;;;;;;1.10;1.00;;;;;;;;;;5078728;28;20469;-81
2022/03/04 14:44:16;;;;;;;1.58;1.10;;;;;;;;;;5078480;28;20410;-80
2022/03/04 14:46:44;;;;;;;4.57;1.20;;;;;;;;;;5076759;28;20416;-82
2022/03/04 14:49:11;;;;;;;2.03;1.35;;;;;;;;;;5092836;28;20927;-81
2022/03/04 14:51:40;;;;;;;2.20;1.55;;;;;;;;;;5075725;28;20880;-79
2022/03/04 14:54:08;;;;;;;1.30;1.20;;;;;;;;;;5057820;28;20827;-80
2022/03/04 14:56:35;;;;;;;1.20;0.70;;;;;;;;;;5073866;28;20447;-78
2022/03/04 14:59:04;;;;;;;2.30;1.40;;;;;;;;;;5078557;28;20414;-80
2022/03/04 15:01:31;;;;;;;1.77;0.80;;;;;;;;;;5066456;28;20516;-81
2022/03/04 15:03:59;;;;;;;1.20;0.90;;;;;;;;;;5066881;28;20807;-79
2022/03/04 15:06:26;;;;;;;1.70;1.60;;;;;;;;;;5059010;28;20457;-77
2022/03/04 15:08:55;;;;;;;1.30;1.10;;;;;;;;;;5075385;28;20815;-79
2022/03/04 15:11:42;;;;;;;2.30;2.10;;;;;;;;;;5073419;28;20506;-79
2022/03/04 15:14:09;;;;;;;1.00;0.90;;;;;;;;;;5074044;28;20478;-79
2022/03/04 15:16:36;;;;;;;1.50;1.00;;;;;;;;;;5075192;28;20868;-79
2022/03/04 15:19:03;;;;;;;2.92;1.10;;;;;;;;;;5073342;28;20487;-80
2022/03/04 15:21:30;;;;;;;2.28;1.30;;;;;;;;;;5056470;28;20455;-79
2022/03/04 15:23:58;;;;;;;1.20;1.10;;;;;;;;;;5073753;28;20425;-79
2022/03/04 15:26:31;;;;;;;1.85;1.45;;;;;;;;;;5073254;28;20416;-78
2022/03/04 15:28:58;;;;;;;2.20;1.58;;;;;;;;;;5073400;28;20403;-79
2022/03/04 15:31:25;;;;;;;0.80;0.70;;;;;;;;;;5075127;28;20404;-79
2022/03/04 15:33:52;;;;;;;0.80;0.80;;;;;;;;;;5053198;28;20424;-80
2022/03/04 15:36:19;;;;;;;0.82;0.82;;;;;;;;;;5069915;28;20440;-78
2022/03/04 15:38:45;;;;;;;1.40;1.20;;;;;;;;;;5074564;28;20502;-79
2022/03/04 15:41:14;;;;;;;1.00;0.90;;;;;;;;;;5048779;28;20475;-79
2022/03/04 15:43:40;;;;;;;1.60;1.50;;;;;;;;;;5070275;28;20408;-78
2022/03/04 15:46:07;;;;;;;2.50;1.25;;;;;;;;;;5073265;28;20901;-78
2022/03/04 15:48:34;;;;;;;0.70;0.60;;;;;;;;;;5072858;28;20403;-79
2022/03/04 15:51:01;;;;;;;0.80;0.73;;;;;;;;;;5057990;28;20402;-85
2022/03/04 15:53:28;;;;;;;1.00;0.90;;;;;;;;;;5052657;28;20870;-77
2022/03/04 15:55:55;;;;;;;1.77;1.67;;;;;;;;;;5036236;28;20758;-78
2022/03/04 15:58:23;;;;;;;1.85;1.65;;;;;;;;;;5052749;28;20904;-79
2022/03/04 16:00:50;;;;;;;0.80;0.80;;;;;;;;;;5071616;28;20419;-78
2022/03/04 16:03:17;;;;;;;1.30;0.90;;;;;;;;;;5070793;28;20431;-78
2022/03/04 16:05:45;;;;;;;2.38;1.08;;;;;;;;;;5074112;28;20412;-78
2022/03/04 16:08:13;;;;;;;1.00;0.90;;;;;;;;;;5073221;28;20772;-78
2022/03/04 16:10:40;;;;;;;2.20;0.90;;;;;;;;;;5074104;28;20441;-77
2022/03/04 16:13:07;;;;;;;3.90;1.35;;;;;;;;;;5056071;28;20611;-77
2022/03/04 16:15:36;;;;;;;1.50;1.40;;;;;;;;;;5073630;28;20433;-77
2022/03/04 16:18:04;;;;;;;1.00;0.90;;;;;;;;;;5056290;28;20408;-77
2022/03/04 16:20:33;;;;;;;4.80;2.00;;;;;;;;;;5073852;28;20903;-76
2022/03/04 16:23:00;;;;;;;1.45;1.35;;;;;;;;;;5074032;28;20454;-77
2022/03/04 16:25:28;;;;;;;2.80;1.10;;;;;;;;;;5056068;28;21003;-76
2022/03/04 16:27:55;;;;;;;1.63;1.52;;;;;;;;;;5055855;28;20419;-77